sensor_id;sensor_type;location;lat;lon;timestamp;pressure;altitude;pressure_sealevel;temperature;humidity
66945;BME280;53853;51.982;5.928;2023-07-28T00:01:15;100346.38;;;18.94;91.02
66945;BME280;53853;51.982;5.928;2023-07-28T00:03:45;100350.72;;;18.95;90.77
66945;BME280;53853;51.982;5.928;2023-07-28T00:06:15;100345.31;;;18.95;91.21
66945;BME280;53853;51.982;5.928;2023-07-28T00:08:45;100339.91;;;18.95;91.02
66945;BME280;53853;51.982;5.928;2023-07-28T00:11:18;100341.56;;;18.96;91.21
66945;BME280;53853;51.982;5.928;2023-07-28T00:13:48;100343.25;;;18.97;91.16
66945;BME280;53853;51.982;5.928;2023-07-28T00:16:18;100346.53;;;18.99;91.21
66945;BME280;53853;51.982;5.928;2023-07-28T00:18:48;100339.25;;;18.99;90.96
66945;BME280;53853;51.982;5.928;2023-07-28T00:21:17;100339.03;;;19.01;91.08
66945;BME280;53853;51.982;5.928;2023-07-28T00:23:47;100349.41;;;19.04;90.99
66945;BME280;53853;51.982;5.928;2023-07-28T00:26:20;100345.03;;;19.03;90.69
66945;BME280;53853;51.982;5.928;2023-07-28T00:28:50;100351.50;;;19.02;90.52
66945;BME280;53853;51.982;5.928;2023-07-28T00:31:20;100354.44;;;19.00;90.77
66945;BME280;53853;51.982;5.928;2023-07-28T00:33:50;100353.56;;;19.00;90.79
66945;BME280;53853;51.982;5.928;2023-07-28T00:36:19;100354.66;;;18.99;91.05
66945;BME280;53853;51.982;5.928;2023-07-28T00:38:49;100354.66;;;18.99;91.17
66945;BME280;53853;51.982;5.928;2023-07-28T00:41:22;100358.16;;;18.99;91.30
66945;BME280;53853;51.982;5.928;2023-07-28T00:43:52;100361.06;;;18.98;91.16
66945;BME280;53853;51.982;5.928;2023-07-28T00:46:22;100357.34;;;18.99;91.29
66945;BME280;53853;51.982;5.928;2023-07-28T00:48:52;100356.53;;;18.98;91.14
66945;BME280;53853;51.982;5.928;2023-07-28T00:51:22;100351.94;;;18.99;91.27
66945;BME280;53853;51.982;5.928;2023-07-28T00:53:53;100357.34;;;18.99;91.35
66945;BME280;53853;51.982;5.928;2023-07-28T00:56:25;100355.69;;;18.98;91.38
66945;BME280;53853;51.982;5.928;2023-07-28T00:58:56;100357.34;;;18.99;91.66
66945;BME280;53853;51.982;5.928;2023-07-28T01:01:26;100354.03;;;18.97;91.67
66945;BME280;53853;51.982;5.928;2023-07-28T01:03:57;100351.78;;;18.94;91.49
66945;BME280;53853;51.982;5.928;2023-07-28T01:06:33;100354.69;;;18.92;91.79
66945;BME280;53853;51.982;5.928;2023-07-28T01:09:11;100358.41;;;18.91;92.01
66945;BME280;53853;51.982;5.928;2023-07-28T01:11:56;100349.72;;;18.89;91.94
66945;BME280;53853;51.982;5.928;2023-07-28T01:14:27;100356.53;;;18.92;91.83
66945;BME280;53853;51.982;5.928;2023-07-28T01:16:57;100354.91;;;18.91;91.76
66945;BME280;53853;51.982;5.928;2023-07-28T01:19:27;100356.53;;;18.92;91.63
66945;BME280;53853;51.982;5.928;2023-07-28T01:24:55;100358.81;;;18.95;92.10
66945;BME280;53853;51.982;5.928;2023-07-28T01:27:29;100366.91;;;18.95;91.79
66945;BME280;53853;51.982;5.928;2023-07-28T01:29:59;100349.88;;;18.94;91.49
66945;BME280;53853;51.982;5.928;2023-07-28T01:32:29;100340.34;;;18.92;91.60
66945;BME280;53853;51.982;5.928;2023-07-28T01:34:59;100351.13;;;18.92;91.86
66945;BME280;53853;51.982;5.928;2023-07-28T01:37:30;100349.88;;;18.94;91.84
66945;BME280;53853;51.982;5.928;2023-07-28T01:40:00;100348.22;;;18.93;91.82
66945;BME280;53853;51.982;5.928;2023-07-28T01:42:32;100354.47;;;18.94;91.76
66945;BME280;53853;51.982;5.928;2023-07-28T01:45:02;100358.22;;;18.93;91.83
66945;BME280;53853;51.982;5.928;2023-07-28T01:47:32;100347.84;;;18.90;92.18
66945;BME280;53853;51.982;5.928;2023-07-28T01:50:03;100351.13;;;18.92;92.28
66945;BME280;53853;51.982;5.928;2023-07-28T01:52:33;100355.94;;;18.90;92.21
66945;BME280;53853;51.982;5.928;2023-07-28T01:55:03;100358.63;;;18.90;92.21
66945;BME280;53853;51.982;5.928;2023-07-28T01:57:39;100360.31;;;18.91;92.48
66945;BME280;53853;51.982;5.928;2023-07-28T02:00:10;100353.25;;;18.90;92.30
66945;BME280;53853;51.982;5.928;2023-07-28T02:02:43;100360.53;;;18.89;92.27
66945;BME280;53853;51.982;5.928;2023-07-28T02:05:13;100358.63;;;18.90;92.42
66945;BME280;53853;51.982;5.928;2023-07-28T02:07:43;100353.84;;;18.92;92.13
66945;BME280;53853;51.982;5.928;2023-07-28T02:10:15;100363.59;;;18.93;92.31
66945;BME280;53853;51.982;5.928;2023-07-28T02:12:47;100362.78;;;18.92;91.93
66945;BME280;53853;51.982;5.928;2023-07-28T02:15:17;100368.78;;;18.94;91.79
66945;BME280;53853;51.982;5.928;2023-07-28T02:17:47;100361.91;;;18.98;92.02
66945;BME280;53853;51.982;5.928;2023-07-28T02:20:17;100361.47;;;19.01;92.17
66945;BME280;53853;51.982;5.928;2023-07-28T02:22:47;100360.22;;;19.04;91.87
66945;BME280;53853;51.982;5.928;2023-07-28T02:25:17;100366.44;;;19.05;91.27
66945;BME280;53853;51.982;5.928;2023-07-28T02:27:50;100360.66;;;19.01;91.11
66945;BME280;53853;51.982;5.928;2023-07-28T02:30:19;100361.06;;;18.98;91.36
66945;BME280;53853;51.982;5.928;2023-07-28T02:32:50;100358.38;;;18.98;91.42
66945;BME280;53853;51.982;5.928;2023-07-28T02:35:20;100350.88;;;19.00;91.73
66945;BME280;53853;51.982;5.928;2023-07-28T02:37:50;100349.25;;;18.99;91.38
66945;BME280;53853;51.982;5.928;2023-07-28T02:40:20;100344.66;;;18.99;91.79
66945;BME280;53853;51.982;5.928;2023-07-28T02:42:52;100349.84;;;19.01;91.71
66945;BME280;53853;51.982;5.928;2023-07-28T02:45:23;100356.06;;;19.01;91.68
66945;BME280;53853;51.982;5.928;2023-07-28T02:47:53;100363.94;;;19.03;91.50
66945;BME280;53853;51.982;5.928;2023-07-28T02:50:24;100363.72;;;19.05;91.70
66945;BME280;53853;51.982;5.928;2023-07-28T02:52:54;100369.75;;;19.07;91.44
66945;BME280;53853;51.982;5.928;2023-07-28T02:55:24;100364.38;;;19.07;91.25
66945;BME280;53853;51.982;5.928;2023-07-28T02:57:56;100365.41;;;19.06;91.10
66945;BME280;53853;51.982;5.928;2023-07-28T03:00:26;100372.47;;;19.07;91.39
66945;BME280;53853;51.982;5.928;2023-07-28T03:02:56;100370.56;;;19.07;91.12
66945;BME280;53853;51.982;5.928;2023-07-28T03:05:26;100368.69;;;19.08;91.12
66945;BME280;53853;51.982;5.928;2023-07-28T03:08:25;100377.00;;;19.06;90.90
66945;BME280;53853;51.982;5.928;2023-07-28T03:11:08;100373.28;;;19.07;91.28
66945;BME280;53853;51.982;5.928;2023-07-28T03:13:41;100372.47;;;19.07;91.06
66945;BME280;53853;51.982;5.928;2023-07-28T03:16:11;100378.69;;;19.07;90.83
66945;BME280;53853;51.982;5.928;2023-07-28T03:18:41;100382.19;;;19.08;90.93
66945;BME280;53853;51.982;5.928;2023-07-28T03:21:11;100382.19;;;19.08;90.72
66945;BME280;53853;51.982;5.928;2023-07-28T03:23:41;100382.41;;;19.06;91.01
66945;BME280;53853;51.982;5.928;2023-07-28T03:26:11;100382.41;;;19.06;90.81
66945;BME280;53853;51.982;5.928;2023-07-28T03:28:43;100381.38;;;19.07;91.20
66945;BME280;53853;51.982;5.928;2023-07-28T03:31:13;100381.38;;;19.07;91.09
66945;BME280;53853;51.982;5.928;2023-07-28T03:33:43;100390.09;;;19.09;91.08
66945;BME280;53853;51.982;5.928;2023-07-28T03:36:14;100385.75;;;19.08;91.10
66945;BME280;53853;51.982;5.928;2023-07-28T03:38:45;100399.25;;;19.08;90.78
66945;BME280;53853;51.982;5.928;2023-07-28T03:41:16;100392.19;;;19.07;91.30
66945;BME280;53853;51.982;5.928;2023-07-28T03:43:48;100401.97;;;19.08;91.38
66945;BME280;53853;51.982;5.928;2023-07-28T03:46:18;100403.00;;;19.07;91.31
66945;BME280;53853;51.982;5.928;2023-07-28T03:48:48;100402.16;;;19.07;91.55
66945;BME280;53853;51.982;5.928;2023-07-28T03:51:19;100404.03;;;19.06;91.35
66945;BME280;53853;51.982;5.928;2023-07-28T03:53:49;100391.59;;;19.05;91.54
66945;BME280;53853;51.982;5.928;2023-07-28T03:56:19;100396.13;;;19.05;91.72
66945;BME280;53853;51.982;5.928;2023-07-28T03:58:51;100397.81;;;19.06;91.70
66945;BME280;53853;51.982;5.928;2023-07-28T04:01:21;100403.41;;;19.04;91.70
66945;BME280;53853;51.982;5.928;2023-07-28T04:03:51;100398.03;;;19.04;91.87
66945;BME280;53853;51.982;5.928;2023-07-28T04:06:39;100401.31;;;19.06;92.02
66945;BME280;53853;51.982;5.928;2023-07-28T04:09:11;100403.81;;;19.08;91.87
66945;BME280;53853;51.982;5.928;2023-07-28T04:11:41;100404.66;;;19.08;92.11
66945;BME280;53853;51.982;5.928;2023-07-28T04:14:14;100407.13;;;19.10;91.86
66945;BME280;53853;51.982;5.928;2023-07-28T04:16:44;100402.78;;;19.09;91.96
66945;BME280;53853;51.982;5.928;2023-07-28T04:19:14;100404.66;;;19.08;92.07
66945;BME280;53853;51.982;5.928;2023-07-28T04:21:44;100410.50;;;19.05;92.38
66945;BME280;53853;51.982;5.928;2023-07-28T04:24:14;100408.00;;;19.04;92.35
66945;BME280;53853;51.982;5.928;2023-07-28T04:26:47;100409.63;;;19.05;92.42
66945;BME280;53853;51.982;5.928;2023-07-28T04:29:22;100407.16;;;19.03;92.61
66945;BME280;53853;51.982;5.928;2023-07-28T04:31:54;100412.56;;;19.03;92.81
66945;BME280;53853;51.982;5.928;2023-07-28T04:34:33;100411.75;;;19.03;92.75
66945;BME280;53853;51.982;5.928;2023-07-28T04:37:11;100417.13;;;19.03;92.78
66945;BME280;53853;51.982;5.928;2023-07-28T04:39:49;100416.31;;;19.02;93.29
66945;BME280;53853;51.982;5.928;2023-07-28T04:42:20;100421.72;;;19.02;93.30
66945;BME280;53853;51.982;5.928;2023-07-28T04:44:53;100422.53;;;19.03;93.22
66945;BME280;53853;51.982;5.928;2023-07-28T04:47:23;100422.31;;;19.04;93.22
66945;BME280;53853;51.982;5.928;2023-07-28T04:49:53;100424.81;;;19.06;93.52
66945;BME280;53853;51.982;5.928;2023-07-28T04:52:42;100428.97;;;19.08;93.30
66945;BME280;53853;51.982;5.928;2023-07-28T04:55:31;100434.38;;;19.08;93.08
66945;BME280;53853;51.982;5.928;2023-07-28T04:58:01;100437.66;;;19.10;93.04
66945;BME280;53853;51.982;5.928;2023-07-28T05:00:46;100440.38;;;19.10;92.99
66945;BME280;53853;51.982;5.928;2023-07-28T05:03:16;100432.06;;;19.12;93.23
66945;BME280;53853;51.982;5.928;2023-07-28T05:05:52;100439.13;;;19.13;92.95
66945;BME280;53853;51.982;5.928;2023-07-28T05:08:22;100441.19;;;19.11;93.05
66945;BME280;53853;51.982;5.928;2023-07-28T05:10:53;100439.34;;;19.11;93.26
66945;BME280;53853;51.982;5.928;2023-07-28T05:13:24;100433.50;;;19.14;93.04
66945;BME280;53853;51.982;5.928;2023-07-28T05:15:59;100445.94;;;19.15;92.80
66945;BME280;53853;51.982;5.928;2023-07-28T05:18:49;100437.84;;;19.15;92.85
66945;BME280;53853;51.982;5.928;2023-07-28T05:21:39;100442.44;;;19.15;92.81
66945;BME280;53853;51.982;5.928;2023-07-28T05:24:12;100437.03;;;19.15;93.17
66945;BME280;53853;51.982;5.928;2023-07-28T05:26:42;100444.09;;;19.16;93.08
66945;BME280;53853;51.982;5.928;2023-07-28T05:29:12;100454.69;;;19.17;93.08
66945;BME280;53853;51.982;5.928;2023-07-28T05:31:46;100444.91;;;19.16;92.83
66945;BME280;53853;51.982;5.928;2023-07-28T05:34:29;100439.72;;;19.15;92.83
66945;BME280;53853;51.982;5.928;2023-07-28T05:36:59;100440.53;;;19.15;93.14
66945;BME280;53853;51.982;5.928;2023-07-28T05:39:32;100449.50;;;19.16;93.25
66945;BME280;53853;51.982;5.928;2023-07-28T05:42:03;100458.41;;;19.16;92.92
66945;BME280;53853;51.982;5.928;2023-07-28T05:44:33;100450.09;;;19.18;92.96
66945;BME280;53853;51.982;5.928;2023-07-28T05:47:06;100456.09;;;19.20;93.02
66945;BME280;53853;51.982;5.928;2023-07-28T05:49:36;100454.00;;;19.22;92.92
66945;BME280;53853;51.982;5.928;2023-07-28T05:52:07;100455.47;;;19.25;93.22
66945;BME280;53853;51.982;5.928;2023-07-28T05:54:37;100464.16;;;19.27;92.83
66945;BME280;53853;51.982;5.928;2023-07-28T05:57:07;100463.13;;;19.28;92.67
66945;BME280;53853;51.982;5.928;2023-07-28T05:59:40;100470.19;;;19.29;92.83
66945;BME280;53853;51.982;5.928;2023-07-28T06:02:13;100466.44;;;19.30;92.75
66945;BME280;53853;51.982;5.928;2023-07-28T06:04:48;100460.81;;;19.31;92.77
66945;BME280;53853;51.982;5.928;2023-07-28T06:07:19;100461.44;;;19.33;92.87
66945;BME280;53853;51.982;5.928;2023-07-28T06:09:49;100470.16;;;19.35;92.72
66945;BME280;53853;51.982;5.928;2023-07-28T06:12:19;100465.34;;;19.37;92.48
66945;BME280;53853;51.982;5.928;2023-07-28T06:14:49;100465.56;;;19.36;92.58
66945;BME280;53853;51.982;5.928;2023-07-28T06:17:22;100465.13;;;19.39;92.54
66945;BME280;53853;51.982;5.928;2023-07-28T06:19:54;100463.03;;;19.41;92.50
66945;BME280;53853;51.982;5.928;2023-07-28T06:22:24;100470.72;;;19.44;92.37
66945;BME280;53853;51.982;5.928;2023-07-28T06:24:54;100481.09;;;19.47;92.28
66945;BME280;53853;51.982;5.928;2023-07-28T06:27:24;100475.69;;;19.47;92.32
66945;BME280;53853;51.982;5.928;2023-07-28T06:29:54;100481.94;;;19.48;92.18
66945;BME280;53853;51.982;5.928;2023-07-28T06:32:27;100482.53;;;19.50;92.33
66945;BME280;53853;51.982;5.928;2023-07-28T06:34:57;100493.72;;;19.53;92.09
66945;BME280;53853;51.982;5.928;2023-07-28T06:37:27;100494.59;;;19.54;91.91
66945;BME280;53853;51.982;5.928;2023-07-28T06:39:57;100499.34;;;19.52;91.69
66945;BME280;53853;51.982;5.928;2023-07-28T06:42:27;100503.72;;;19.53;91.99
66945;BME280;53853;51.982;5.928;2023-07-28T06:44:57;100504.31;;;19.55;91.83
66945;BME280;53853;51.982;5.928;2023-07-28T06:47:31;100509.91;;;19.60;91.72
66945;BME280;53853;51.982;5.928;2023-07-28T06:50:01;100510.75;;;19.61;91.73
66945;BME280;53853;51.982;5.928;2023-07-28T06:52:32;100512.41;;;19.62;91.34
66945;BME280;53853;51.982;5.928;2023-07-28T06:55:02;100517.19;;;19.60;91.08
66945;BME280;53853;51.982;5.928;2023-07-28T06:57:32;100519.09;;;19.59;91.13
66945;BME280;53853;51.982;5.928;2023-07-28T07:00:02;100521.56;;;19.61;91.18
66945;BME280;53853;51.982;5.928;2023-07-28T07:02:35;100522.16;;;19.63;91.19
66945;BME280;53853;51.982;5.928;2023-07-28T07:05:05;100533.59;;;19.65;91.10
66945;BME280;53853;51.982;5.928;2023-07-28T07:07:36;100536.50;;;19.63;90.82
66945;BME280;53853;51.982;5.928;2023-07-28T07:10:07;100536.50;;;19.63;90.89
66945;BME280;53853;51.982;5.928;2023-07-28T07:12:37;100541.91;;;19.63;90.97
66945;BME280;53853;51.982;5.928;2023-07-28T07:15:08;100540.28;;;19.62;90.82
66945;BME280;53853;51.982;5.928;2023-07-28T07:17:41;100539.00;;;19.65;90.97
66945;BME280;53853;51.982;5.928;2023-07-28T07:20:12;100540.00;;;19.70;91.33
66945;BME280;53853;51.982;5.928;2023-07-28T07:22:42;100541.25;;;19.75;91.38
66945;BME280;53853;51.982;5.928;2023-07-28T07:25:12;100542.88;;;19.82;91.46
66945;BME280;53853;51.982;5.928;2023-07-28T07:27:41;100550.94;;;19.89;91.74
66945;BME280;53853;51.982;5.928;2023-07-28T07:30:12;100554.22;;;19.98;91.52
66945;BME280;53853;51.982;5.928;2023-07-28T07:32:45;100559.41;;;19.99;90.75
66945;BME280;53853;51.982;5.928;2023-07-28T07:35:15;100552.50;;;20.03;90.66
66945;BME280;53853;51.982;5.928;2023-07-28T07:37:44;100562.06;;;20.06;90.37
66945;BME280;53853;51.982;5.928;2023-07-28T07:40:14;100552.91;;;20.07;89.48
66945;BME280;53853;51.982;5.928;2023-07-28T07:42:46;100556.84;;;20.04;88.13
66945;BME280;53853;51.982;5.928;2023-07-28T07:45:16;100563.72;;;20.07;88.33
66945;BME280;53853;51.982;5.928;2023-07-28T07:47:49;100567.19;;;20.14;89.01
66945;BME280;53853;51.982;5.928;2023-07-28T07:50:19;100571.94;;;20.19;88.41
66945;BME280;53853;51.982;5.928;2023-07-28T07:52:49;100557.16;;;20.21;87.81
66945;BME280;53853;51.982;5.928;2023-07-28T07:55:19;100577.31;;;20.25;88.21
66945;BME280;53853;51.982;5.928;2023-07-28T07:57:49;100576.66;;;20.30;88.22
66945;BME280;53853;51.982;5.928;2023-07-28T08:00:19;100574.72;;;20.37;88.61
66945;BME280;53853;51.982;5.928;2023-07-28T08:02:53;100568.78;;;20.47;88.60
66945;BME280;53853;51.982;5.928;2023-07-28T08:05:23;100574.75;;;20.56;88.56
66945;BME280;53853;51.982;5.928;2023-07-28T08:07:53;100583.44;;;20.65;88.42
66945;BME280;53853;51.982;5.928;2023-07-28T08:10:23;100579.03;;;20.70;87.97
66945;BME280;53853;51.982;5.928;2023-07-28T08:12:53;100578.59;;;20.73;86.37
66945;BME280;53853;51.982;5.928;2023-07-28T08:15:23;100581.28;;;20.73;85.45
66945;BME280;53853;51.982;5.928;2023-07-28T08:17:56;100589.19;;;20.75;85.76
66945;BME280;53853;51.982;5.928;2023-07-28T08:20:26;100588.53;;;20.79;85.72
66945;BME280;53853;51.982;5.928;2023-07-28T08:22:56;100585.16;;;20.84;86.14
66945;BME280;53853;51.982;5.928;2023-07-28T08:25:25;100591.16;;;20.86;86.08
66945;BME280;53853;51.982;5.928;2023-07-28T08:27:55;100593.06;;;20.86;85.61
66945;BME280;53853;51.982;5.928;2023-07-28T08:30:25;100592.81;;;20.87;85.97
66945;BME280;53853;51.982;5.928;2023-07-28T08:32:58;100597.09;;;20.95;86.40
66945;BME280;53853;51.982;5.928;2023-07-28T08:35:29;100594.94;;;21.04;86.42
66945;BME280;53853;51.982;5.928;2023-07-28T08:37:58;100598.47;;;21.04;85.02
66945;BME280;53853;51.982;5.928;2023-07-28T08:40:28;100604.78;;;20.98;82.31
66945;BME280;53853;51.982;5.928;2023-07-28T08:42:58;100603.38;;;20.95;82.66
66945;BME280;53853;51.982;5.928;2023-07-28T08:45:28;100607.13;;;20.94;83.09
66945;BME280;53853;51.982;5.928;2023-07-28T08:48:01;100611.72;;;20.94;82.98
66945;BME280;53853;51.982;5.928;2023-07-28T08:50:31;100609.53;;;20.84;82.21
66945;BME280;53853;51.982;5.928;2023-07-28T08:53:01;100615.63;;;20.79;82.56
66945;BME280;53853;51.982;5.928;2023-07-28T08:55:31;100615.66;;;20.73;82.23
66945;BME280;53853;51.982;5.928;2023-07-28T08:58:15;100614.38;;;20.75;82.93
66945;BME280;53853;51.982;5.928;2023-07-28T09:00:46;100614.09;;;20.84;83.53
66945;BME280;53853;51.982;5.928;2023-07-28T09:03:19;100614.19;;;20.95;82.79
66945;BME280;53853;51.982;5.928;2023-07-28T09:05:59;100617.88;;;21.01;82.35
66945;BME280;53853;51.982;5.928;2023-07-28T09:08:31;100626.19;;;21.06;81.91
66945;BME280;53853;51.982;5.928;2023-07-28T09:11:03;100615.28;;;21.13;81.83
66945;BME280;53853;51.982;5.928;2023-07-28T09:13:38;100624.13;;;21.20;81.30
66945;BME280;53853;51.982;5.928;2023-07-28T09:16:17;100621.13;;;21.28;81.27
66945;BME280;53853;51.982;5.928;2023-07-28T09:18:50;100628.97;;;21.37;81.61
66945;BME280;53853;51.982;5.928;2023-07-28T09:21:20;100627.22;;;21.42;81.53
66945;BME280;53853;51.982;5.928;2023-07-28T09:23:50;100620.59;;;21.38;79.74
66945;BME280;53853;51.982;5.928;2023-07-28T09:26:21;100626.72;;;21.33;79.67
66945;BME280;53853;51.982;5.928;2023-07-28T09:28:51;100630.09;;;21.29;79.61
66945;BME280;53853;51.982;5.928;2023-07-28T09:31:29;100632.19;;;21.27;79.64
66945;BME280;53853;51.982;5.928;2023-07-28T09:34:02;100628.22;;;21.29;80.09
66945;BME280;53853;51.982;5.928;2023-07-28T09:36:32;100635.44;;;21.35;79.77
66945;BME280;53853;51.982;5.928;2023-07-28T09:39:03;100623.81;;;21.47;80.50
66945;BME280;53853;51.982;5.928;2023-07-28T09:41:35;100629.72;;;21.62;79.48
66945;BME280;53853;51.982;5.928;2023-07-28T09:44:06;100623.06;;;21.77;79.80
66945;BME280;53853;51.982;5.928;2023-07-28T09:46:36;100625.13;;;21.93;80.20
66945;BME280;53853;51.982;5.928;2023-07-28T09:49:21;100616.94;;;22.12;80.26
66945;BME280;53853;51.982;5.928;2023-07-28T09:51:57;100626.69;;;22.31;80.04
66945;BME280;53853;51.982;5.928;2023-07-28T09:54:29;100625.97;;;22.36;76.54
66945;BME280;53853;51.982;5.928;2023-07-28T09:57:00;100626.47;;;22.45;77.19
66945;BME280;53853;51.982;5.928;2023-07-28T09:59:35;100624.09;;;22.60;75.76
66945;BME280;53853;51.982;5.928;2023-07-28T10:02:08;100623.56;;;22.70;75.29
66945;BME280;53853;51.982;5.928;2023-07-28T10:04:41;100630.50;;;22.77;74.59
66945;BME280;53853;51.982;5.928;2023-07-28T10:07:11;100627.31;;;22.80;73.91
66945;BME280;53853;51.982;5.928;2023-07-28T10:09:41;100624.25;;;22.89;73.69
66945;BME280;53853;51.982;5.928;2023-07-28T10:12:18;100621.53;;;22.89;72.54
66945;BME280;53853;51.982;5.928;2023-07-28T10:15:00;100620.84;;;22.93;73.03
66945;BME280;53853;51.982;5.928;2023-07-28T10:17:34;100624.22;;;23.01;73.85
66945;BME280;53853;51.982;5.928;2023-07-28T10:20:07;100625.56;;;23.10;74.13
66945;BME280;53853;51.982;5.928;2023-07-28T10:23:03;100621.19;;;23.21;74.54
66945;BME280;53853;51.982;5.928;2023-07-28T10:25:35;100621.97;;;23.33;73.93
66945;BME280;53853;51.982;5.928;2023-07-28T10:28:05;100616.25;;;23.46;73.82
66945;BME280;53853;51.982;5.928;2023-07-28T10:30:50;100620.75;;;23.52;71.41
66945;BME280;53853;51.982;5.928;2023-07-28T10:33:31;100624.13;;;23.60;72.16
66945;BME280;53853;51.982;5.928;2023-07-28T10:36:14;100622.59;;;23.64;71.47
66945;BME280;53853;51.982;5.928;2023-07-28T10:38:44;100630.50;;;23.65;70.78
66945;BME280;53853;51.982;5.928;2023-07-28T10:41:18;100627.63;;;23.72;70.52
66945;BME280;53853;51.982;5.928;2023-07-28T10:43:47;100625.84;;;23.78;69.37
66945;BME280;53853;51.982;5.928;2023-07-28T10:46:20;100624.91;;;23.84;71.39
66945;BME280;53853;51.982;5.928;2023-07-28T10:48:51;100628.53;;;23.90;71.83
66945;BME280;53853;51.982;5.928;2023-07-28T10:51:24;100627.09;;;23.99;70.72
66945;BME280;53853;51.982;5.928;2023-07-28T10:53:58;100636.19;;;24.04;68.74
66945;BME280;53853;51.982;5.928;2023-07-28T10:56:29;100617.53;;;24.13;68.23
66945;BME280;53853;51.982;5.928;2023-07-28T10:59:00;100620.34;;;24.18;66.92
66945;BME280;53853;51.982;5.928;2023-07-28T11:01:34;100633.47;;;24.21;67.58
66945;BME280;53853;51.982;5.928;2023-07-28T11:04:08;100630.81;;;24.27;68.30
66945;BME280;53853;51.982;5.928;2023-07-28T11:06:43;100631.00;;;24.37;67.77
66945;BME280;53853;51.982;5.928;2023-07-28T11:09:14;100634.06;;;24.40;65.33
66945;BME280;53853;51.982;5.928;2023-07-28T11:11:45;100638.75;;;24.45;66.25
66945;BME280;53853;51.982;5.928;2023-07-28T11:14:16;100629.53;;;24.46;65.83
66945;BME280;53853;51.982;5.928;2023-07-28T11:16:47;100638.13;;;24.38;65.40
66945;BME280;53853;51.982;5.928;2023-07-28T11:19:17;100636.78;;;24.40;66.88
66945;BME280;53853;51.982;5.928;2023-07-28T11:21:55;100630.91;;;24.49;67.26
66945;BME280;53853;51.982;5.928;2023-07-28T11:24:25;100626.75;;;24.58;67.89
66945;BME280;53853;51.982;5.928;2023-07-28T11:26:58;100639.63;;;24.63;66.32
66945;BME280;53853;51.982;5.928;2023-07-28T11:29:29;100636.16;;;24.67;66.05
66945;BME280;53853;51.982;5.928;2023-07-28T11:32:00;100639.03;;;24.77;67.08
66945;BME280;53853;51.982;5.928;2023-07-28T11:34:35;100639.94;;;24.83;64.70
66945;BME280;53853;51.982;5.928;2023-07-28T11:37:08;100640.94;;;24.77;63.47
66945;BME280;53853;51.982;5.928;2023-07-28T11:39:39;100637.94;;;24.78;62.64
66945;BME280;53853;51.982;5.928;2023-07-28T11:42:09;100645.06;;;24.80;63.89
66945;BME280;53853;51.982;5.928;2023-07-28T11:44:39;100641.03;;;24.82;64.63
66945;BME280;53853;51.982;5.928;2023-07-28T11:47:17;100640.66;;;24.95;65.00
66945;BME280;53853;51.982;5.928;2023-07-28T11:49:48;100645.13;;;25.02;64.13
66945;BME280;53853;51.982;5.928;2023-07-28T11:52:21;100635.09;;;25.07;64.44
66945;BME280;53853;51.982;5.928;2023-07-28T11:54:52;100641.00;;;25.21;64.91
66945;BME280;53853;51.982;5.928;2023-07-28T11:57:22;100637.53;;;25.26;61.79
66945;BME280;53853;51.982;5.928;2023-07-28T11:59:54;100636.81;;;25.30;63.14
66945;BME280;53853;51.982;5.928;2023-07-28T12:02:28;100643.47;;;25.40;62.50
66945;BME280;53853;51.982;5.928;2023-07-28T12:04:58;100636.34;;;25.39;61.22
66945;BME280;53853;51.982;5.928;2023-07-28T12:07:31;100638.00;;;25.40;62.37
66945;BME280;53853;51.982;5.928;2023-07-28T12:10:03;100635.34;;;25.45;60.47
66945;BME280;53853;51.982;5.928;2023-07-28T12:12:41;100650.69;;;25.51;61.75
66945;BME280;53853;51.982;5.928;2023-07-28T12:15:22;100647.00;;;25.62;62.25
66945;BME280;53853;51.982;5.928;2023-07-28T12:18:08;100643.81;;;25.71;61.57
66945;BME280;53853;51.982;5.928;2023-07-28T12:20:39;100647.41;;;25.71;60.18
66945;BME280;53853;51.982;5.928;2023-07-28T12:23:17;100647.66;;;25.70;59.46
66945;BME280;53853;51.982;5.928;2023-07-28T12:25:48;100641.34;;;25.69;60.61
66945;BME280;53853;51.982;5.928;2023-07-28T12:28:20;100651.56;;;25.79;61.25
66945;BME280;53853;51.982;5.928;2023-07-28T12:30:50;100647.03;;;25.90;61.35
66945;BME280;53853;51.982;5.928;2023-07-28T12:33:22;100645.69;;;25.92;59.28
66945;BME280;53853;51.982;5.928;2023-07-28T12:35:52;100648.50;;;25.97;59.91
66945;BME280;53853;51.982;5.928;2023-07-28T12:38:25;100655.94;;;26.02;60.59
66945;BME280;53853;51.982;5.928;2023-07-28T12:40:55;100650.47;;;26.02;58.53
66945;BME280;53853;51.982;5.928;2023-07-28T12:43:25;100658.41;;;26.03;58.69
66945;BME280;53853;51.982;5.928;2023-07-28T12:45:55;100653.25;;;26.07;59.52
66945;BME280;53853;51.982;5.928;2023-07-28T12:48:25;100653.63;;;26.16;58.64
66945;BME280;53853;51.982;5.928;2023-07-28T12:50:55;100653.63;;;26.16;58.97
66945;BME280;53853;51.982;5.928;2023-07-28T12:53:28;100650.38;;;26.19;59.20
66945;BME280;53853;51.982;5.928;2023-07-28T12:55:58;100648.38;;;26.09;56.64
66945;BME280;53853;51.982;5.928;2023-07-28T12:58:28;100654.59;;;26.05;58.27
66945;BME280;53853;51.982;5.928;2023-07-28T13:01:00;100651.41;;;26.13;58.81
66945;BME280;53853;51.982;5.928;2023-07-28T13:03:31;100652.59;;;26.22;59.57
66945;BME280;53853;51.982;5.928;2023-07-28T13:06:01;100648.31;;;26.31;60.20
66945;BME280;53853;51.982;5.928;2023-07-28T13:08:34;100644.47;;;26.32;57.18
66945;BME280;53853;51.982;5.928;2023-07-28T13:11:04;100644.66;;;26.20;56.30
66945;BME280;53853;51.982;5.928;2023-07-28T13:13:34;100644.78;;;26.09;57.50
66945;BME280;53853;51.982;5.928;2023-07-28T13:16:04;100653.47;;;26.00;57.40
66945;BME280;53853;51.982;5.928;2023-07-28T13:18:34;100649.19;;;25.88;56.66